Aviation Digital Data Service (ADDS)

Output produced by METARs form (0559 UTC 20 October 2018)
found at http://www.aviationweather.gov/metar/data/
 
TAF FNBG 192300Z 2000/2012 VRB03KT 9999 FEW020 
     BECMG 2008/2010 29012KT
       
FNCA 200500Z 00000KT 9000 BKN010 25/24 Q1011
TAF FNCA 192300Z 2000/2012 21006KT 9999 SCT015 
     TEMPO 2005/2009 6000 BKN010 
     BECMG 2010/2012 27010KT FEW012 FEW018TCU BKN022
       
TAF FNDU 192300Z 2000/2012 29004KT 6000 SCT020 
     PROB30 
     TEMPO 2001/2007 4000 -RA SCT010 
     BECMG 2010/2012 9999 TS FEW025CB SCT035
       
FNHU 200500Z 03008KT 8000 VCSH FEW010 BKN020 18/14 Q1022
TAF FNHU 192300Z 2000/2012 13004KT CAVOK 
     BECMG 2010/2012 9000 SCT016 FEW020TCU
       
TAF FNKU 192300Z 2000/2012 27010KT CAVOK 
     BECMG 2010/2012 10008KT 9999 SCT020 FEW022CB
       
FNLU 200500Z VRB03KT 7000 -RA BKN020 23/22 Q1011 NOSIG
TAF FNLU 200530Z 2006/2112 21006KT 6000 -DZ SCT014 BKN020 
     BECMG 2011/2014 27010KT SCT022 BKN025 
     TEMPO 2014/2018 FEW022
       
FNUE 200500Z 26006KT CAVOK 18/16 Q1019
TAF FNUE 192300Z 2000/2012 02004KT 9999 FEW023CB SCT030 
     BECMG 2010/2012 10008KT 9000 TS
       
TAF FNMA 192300Z 2000/2012 27006KT 9000 FEW020 
     PROB30 
     TEMPO 2002/2008 5000 -RA SCT012 BKN020 
     BECMG 2010/2012 TS BKN020 FEW022CB
       
TAF FNME 192300Z 2000/2012 29004KT 9999 SCT025 
     TEMPO 2008/2012 11005KT
       
TAF FNMO 192300Z 2000/2012 23005KT 9000 FEW010 
     BECMG 2008/2010 29012KT CAVOK
       
TAF FNGI 192300Z 2000/2012 17010KT CAVOK
       
TAF FNSA 192300Z 2000/2012 27004KT 9999 SCT025 
     BECMG 2010/2012 9000 TS FEW023CB
       
TAF FNSO 192300Z 2000/2012 21005KT 9000 SCT015 
     TEMPO 2006/2010 7000 BKN012 
     BECMG 2010/2012 28010KT